createdAt,value
2023-05-12T00:00:12.726Z,24.81
2023-05-12T00:01:12.785Z,24.82
2023-05-12T00:02:12.787Z,24.82
2023-05-12T00:03:12.900Z,24.81
2023-05-12T00:04:12.962Z,24.80
2023-05-12T00:05:12.967Z,24.81
2023-05-12T00:06:13.016Z,24.80
2023-05-12T00:07:13.069Z,24.80
2023-05-12T00:08:13.114Z,24.81
2023-05-12T00:09:13.192Z,24.80
2023-05-12T00:10:13.223Z,24.80
2023-05-12T00:11:13.324Z,24.80
2023-05-12T00:12:13.371Z,24.81
2023-05-12T00:13:13.446Z,24.80
2023-05-12T00:14:13.425Z,24.80
2023-05-12T00:15:13.540Z,24.80
2023-05-12T00:16:13.576Z,24.79
2023-05-12T00:17:13.574Z,24.80
2023-05-12T00:18:13.666Z,24.79
2023-05-12T00:19:13.701Z,24.79
2023-05-12T00:20:13.770Z,24.79
2023-05-12T00:21:13.791Z,24.79
2023-05-12T00:22:13.835Z,24.79
2023-05-12T00:23:13.916Z,24.79
2023-05-12T00:24:13.947Z,24.79
2023-05-12T00:25:14.030Z,24.79
2023-05-12T00:26:14.057Z,24.79
2023-05-12T00:27:14.129Z,24.79
2023-05-12T00:28:14.160Z,24.79
2023-05-12T00:29:14.204Z,24.78
2023-05-12T00:30:14.312Z,24.78
2023-05-12T00:31:14.323Z,24.78
2023-05-12T00:32:14.420Z,24.78
2023-05-12T00:33:14.489Z,24.78
2023-05-12T00:34:14.531Z,24.77
2023-05-12T00:35:14.587Z,24.77
2023-05-12T00:36:14.596Z,24.77
2023-05-12T00:37:14.641Z,24.77
2023-05-12T00:38:14.760Z,24.77
2023-05-12T00:39:14.769Z,24.76
2023-05-12T00:40:14.837Z,24.76
2023-05-12T00:41:14.871Z,24.76
2023-05-12T00:42:14.954Z,24.75
2023-05-12T00:43:14.990Z,24.75
2023-05-12T00:44:15.063Z,24.76
2023-05-12T00:45:15.164Z,24.75
2023-05-12T00:46:15.230Z,24.74
2023-05-12T00:47:15.236Z,24.74
2023-05-12T00:48:15.300Z,24.75
2023-05-12T00:49:15.340Z,24.75
2023-05-12T00:50:15.374Z,24.76
2023-05-12T00:51:15.458Z,24.75
2023-05-12T00:52:15.483Z,24.74
2023-05-12T00:53:15.562Z,24.74
2023-05-12T00:54:15.648Z,24.74
2023-05-12T00:55:15.706Z,24.74
2023-05-12T00:56:15.768Z,24.74
2023-05-12T00:57:15.804Z,24.73
2023-05-12T00:58:15.881Z,24.73
2023-05-12T00:59:15.931Z,24.74
2023-05-12T01:00:16.012Z,24.73
2023-05-12T01:01:16.106Z,24.73
2023-05-12T01:02:16.173Z,24.73
2023-05-12T01:03:16.224Z,24.73
2023-05-12T01:04:16.305Z,24.73
2023-05-12T01:05:16.289Z,24.73
2023-05-12T01:06:16.343Z,24.72
2023-05-12T01:07:16.407Z,24.72
2023-05-12T01:08:16.458Z,24.73
2023-05-12T01:09:16.517Z,24.72
2023-05-12T01:10:16.616Z,24.72
2023-05-12T01:11:16.611Z,24.72
2023-05-12T01:12:16.689Z,24.72
2023-05-12T01:13:16.780Z,24.72
2023-05-12T01:14:16.836Z,24.72
2023-05-12T01:15:17.002Z,24.72
2023-05-12T01:16:16.948Z,24.71
2023-05-12T01:17:17.052Z,24.71
2023-05-12T01:18:17.111Z,24.72
2023-05-12T01:19:17.221Z,24.72
2023-05-12T01:20:17.357Z,24.72
2023-05-12T01:21:17.205Z,24.72
2023-05-12T01:22:17.383Z,24.70
2023-05-12T01:23:17.309Z,24.70
2023-05-12T01:24:17.391Z,24.71
2023-05-12T01:25:17.494Z,24.70
2023-05-12T01:26:17.558Z,24.70
2023-05-12T01:27:17.618Z,24.70
2023-05-12T01:28:17.653Z,24.70
2023-05-12T01:29:17.733Z,24.70
2023-05-12T01:30:18.033Z,24.70
2023-05-12T01:31:20.246Z,24.69
2023-05-12T01:32:17.855Z,24.70
2023-05-12T01:33:17.858Z,24.70
2023-05-12T01:34:17.821Z,24.70
2023-05-12T01:35:17.806Z,24.70
2023-05-12T01:36:17.859Z,24.70
2023-05-12T01:37:17.820Z,24.69
2023-05-12T01:38:17.800Z,24.70
2023-05-12T01:39:17.800Z,24.70
2023-05-12T01:40:18.092Z,24.70
2023-05-12T01:41:17.810Z,24.70
2023-05-12T01:42:17.772Z,24.70
2023-05-12T01:43:17.770Z,24.70
2023-05-12T01:44:17.756Z,24.70
2023-05-12T01:45:17.769Z,24.70
2023-05-12T01:46:17.813Z,24.70
2023-05-12T01:47:17.717Z,24.70
2023-05-12T01:48:17.735Z,24.69
2023-05-12T01:49:17.686Z,24.69
2023-05-12T01:50:17.842Z,24.68
2023-05-12T01:51:17.704Z,24.68
2023-05-12T01:52:17.701Z,24.68
2023-05-12T01:53:17.732Z,24.68
2023-05-12T01:54:17.681Z,24.68
2023-05-12T01:55:17.699Z,24.69
2023-05-12T01:56:17.681Z,24.69
2023-05-12T01:57:17.697Z,24.69
2023-05-12T01:58:17.709Z,24.69
2023-05-12T01:59:17.717Z,24.68
2023-05-12T02:00:18.058Z,24.68
2023-05-12T02:01:17.686Z,24.68
2023-05-12T02:02:17.733Z,24.68
2023-05-12T02:03:17.718Z,24.68
2023-05-12T02:04:17.714Z,24.68
2023-05-12T02:05:17.691Z,24.68
2023-05-12T02:06:17.771Z,24.67
2023-05-12T02:07:17.776Z,24.67
2023-05-12T02:08:17.838Z,24.66
2023-05-12T02:09:17.877Z,24.66
2023-05-12T02:10:18.166Z,24.66
2023-05-12T02:11:18.009Z,24.66
2023-05-12T02:12:18.037Z,24.65
2023-05-12T02:13:18.126Z,24.66
2023-05-12T02:14:18.167Z,24.66
2023-05-12T02:15:18.224Z,24.67
2023-05-12T02:16:18.291Z,24.65
2023-05-12T02:17:18.365Z,24.66
2023-05-12T02:18:18.389Z,24.66
2023-05-12T02:19:18.408Z,24.66
2023-05-12T02:20:18.718Z,24.66
2023-05-12T02:21:18.543Z,24.66
2023-05-12T02:22:18.558Z,24.66
2023-05-12T02:23:18.624Z,24.65
2023-05-12T02:24:18.643Z,24.66
2023-05-12T02:25:18.709Z,24.66
2023-05-12T02:26:18.742Z,24.65
2023-05-12T02:27:18.778Z,24.64
2023-05-12T02:28:18.770Z,24.65
2023-05-12T02:29:18.887Z,24.64
2023-05-12T02:30:19.044Z,24.65
2023-05-12T02:31:19.042Z,24.64
2023-05-12T02:32:19.016Z,24.64
2023-05-12T02:33:19.056Z,24.64
2023-05-12T02:34:19.110Z,24.64
2023-05-12T02:35:19.204Z,24.64
2023-05-12T02:36:19.215Z,24.64
2023-05-12T02:37:19.233Z,24.64
2023-05-12T02:38:19.261Z,24.64
2023-05-12T02:39:19.333Z,24.63
2023-05-12T02:40:19.451Z,24.63
2023-05-12T02:41:19.403Z,24.64
2023-05-12T02:42:19.450Z,24.63
2023-05-12T02:43:19.460Z,24.63
2023-05-12T02:44:19.510Z,24.63
2023-05-12T02:45:19.561Z,24.64
2023-05-12T02:46:19.625Z,24.63
2023-05-12T02:47:19.592Z,24.64
2023-05-12T02:48:19.642Z,24.63
2023-05-12T02:49:19.649Z,24.63
2023-05-12T02:50:19.981Z,24.64
2023-05-12T02:51:19.671Z,24.63
2023-05-12T02:52:19.646Z,24.63
2023-05-12T02:53:19.729Z,24.63
2023-05-12T02:54:19.747Z,24.63
2023-05-12T02:55:19.756Z,24.64
2023-05-12T02:56:19.742Z,24.63
2023-05-12T02:57:19.758Z,24.63
2023-05-12T02:58:19.780Z,24.63
2023-05-12T02:59:19.783Z,24.63
2023-05-12T03:00:19.917Z,24.62
2023-05-12T03:01:19.861Z,24.62
2023-05-12T03:02:19.866Z,24.62
2023-05-12T03:03:19.871Z,24.62
2023-05-12T03:04:19.849Z,24.62
2023-05-12T03:05:19.904Z,24.62
2023-05-12T03:06:19.858Z,24.61
2023-05-12T03:07:19.884Z,24.61
2023-05-12T03:08:19.882Z,24.61
2023-05-12T03:09:19.859Z,24.61
2023-05-12T03:10:20.127Z,24.61
2023-05-12T03:11:19.862Z,24.61
2023-05-12T03:12:19.889Z,24.60
2023-05-12T03:13:19.901Z,24.60
2023-05-12T03:14:19.884Z,24.60
2023-05-12T03:15:19.911Z,24.60
2023-05-12T03:16:19.975Z,24.61
2023-05-12T03:17:19.945Z,24.61
2023-05-12T03:18:20.017Z,24.61
2023-05-12T03:19:19.931Z,24.60
2023-05-12T03:20:20.267Z,24.61
2023-05-12T03:21:19.952Z,24.60
2023-05-12T03:22:19.974Z,24.60
2023-05-12T03:23:19.963Z,24.60
2023-05-12T03:24:19.965Z,24.60
2023-05-12T03:25:19.994Z,24.60
2023-05-12T03:26:19.994Z,24.60
2023-05-12T03:27:19.974Z,24.60
2023-05-12T03:28:19.988Z,24.60
2023-05-12T03:29:20.022Z,24.59
2023-05-12T03:30:20.276Z,24.60
2023-05-12T03:31:20.011Z,24.59
2023-05-12T03:32:20.058Z,24.60
2023-05-12T03:33:20.010Z,24.59
2023-05-12T03:34:20.023Z,24.59
2023-05-12T03:35:19.996Z,24.59
2023-05-12T03:36:19.994Z,24.59
2023-05-12T03:37:20.048Z,24.58
2023-05-12T03:38:19.964Z,24.59
2023-05-12T03:39:19.969Z,24.58
2023-05-12T03:40:20.111Z,24.59
2023-05-12T03:41:19.974Z,24.59
2023-05-12T03:42:19.947Z,24.59
2023-05-12T03:43:20.091Z,24.59
2023-05-12T03:44:19.957Z,24.59
2023-05-12T03:45:19.966Z,24.59
2023-05-12T03:46:20.058Z,24.60
2023-05-12T03:47:20.078Z,24.59
2023-05-12T03:48:20.030Z,24.59
2023-05-12T03:49:19.998Z,24.58
2023-05-12T03:50:20.154Z,24.58
2023-05-12T03:51:19.951Z,24.57
2023-05-12T03:52:19.947Z,24.58
2023-05-12T03:53:20.013Z,24.57
2023-05-12T03:54:19.977Z,24.57
2023-05-12T03:55:19.965Z,24.57
2023-05-12T03:56:19.970Z,24.58
2023-05-12T03:57:19.998Z,24.57
2023-05-12T03:58:19.972Z,24.58
2023-05-12T03:59:20.002Z,24.57
2023-05-12T04:00:20.274Z,24.58
2023-05-12T04:01:20.022Z,24.57
2023-05-12T04:02:20.036Z,24.57
2023-05-12T04:03:20.115Z,24.56
2023-05-12T04:04:19.990Z,24.58
2023-05-12T04:05:19.998Z,24.58
2023-05-12T04:06:20.011Z,24.57
2023-05-12T04:07:20.009Z,24.57
2023-05-12T04:08:20.026Z,24.55
2023-05-12T04:09:20.027Z,24.54
2023-05-12T04:10:20.320Z,24.54
2023-05-12T04:11:19.979Z,24.53
2023-05-12T04:12:20.050Z,24.53
2023-05-12T04:13:20.006Z,24.52
2023-05-12T04:14:26.495Z,24.53
2023-05-12T04:15:21.026Z,24.53
2023-05-12T04:16:20.079Z,24.53
2023-05-12T04:17:20.056Z,24.52
2023-05-12T04:18:20.079Z,24.51
2023-05-12T04:19:19.996Z,24.50
2023-05-12T04:20:20.179Z,24.49
2023-05-12T04:21:20.005Z,24.49
2023-05-12T04:22:20.006Z,24.47
2023-05-12T04:23:20.020Z,24.46
2023-05-12T04:24:19.960Z,24.45
2023-05-12T04:25:19.969Z,24.46
2023-05-12T04:26:19.977Z,24.44
2023-05-12T04:27:19.959Z,24.42
2023-05-12T04:28:19.945Z,24.41
2023-05-12T04:29:19.965Z,24.41
2023-05-12T04:30:20.226Z,24.40
2023-05-12T04:31:20.029Z,24.39
2023-05-12T04:32:20.104Z,24.40
2023-05-12T04:33:19.930Z,24.40
2023-05-12T04:34:19.970Z,24.39
2023-05-12T04:35:19.911Z,24.39
2023-05-12T04:36:19.928Z,24.39
2023-05-12T04:37:19.951Z,24.40
2023-05-12T04:38:19.967Z,24.39
2023-05-12T04:39:20.025Z,24.40
2023-05-12T04:40:20.265Z,24.42
2023-05-12T04:41:19.988Z,24.42
2023-05-12T04:42:20.012Z,24.43
2023-05-12T04:44:20.007Z,24.44
2023-05-12T04:45:20.324Z,24.46
2023-05-12T04:46:20.055Z,24.47
2023-05-12T04:47:20.061Z,24.48
2023-05-12T04:48:19.981Z,24.48
2023-05-12T04:49:19.987Z,24.48
2023-05-12T04:50:19.964Z,24.48
2023-05-12T04:51:20.039Z,24.48
2023-05-12T04:52:20.013Z,24.49
2023-05-12T04:53:19.963Z,24.49
2023-05-12T04:54:19.972Z,24.49
2023-05-12T04:55:20.095Z,24.50
2023-05-12T04:56:19.976Z,24.51
2023-05-12T04:57:19.994Z,24.51
2023-05-12T04:58:19.950Z,24.52
2023-05-12T04:59:19.992Z,24.53
2023-05-12T05:00:19.968Z,24.54
2023-05-12T05:01:19.954Z,24.54
2023-05-12T05:02:19.932Z,24.54
2023-05-12T05:03:20.123Z,24.55
2023-05-12T05:04:19.929Z,24.56
2023-05-12T05:05:20.032Z,24.56
2023-05-12T05:06:19.906Z,24.56
2023-05-12T05:07:19.924Z,24.57
2023-05-12T05:08:19.911Z,24.57
2023-05-12T05:09:20.132Z,24.58
2023-05-12T05:10:19.863Z,24.58
2023-05-12T05:11:19.842Z,24.58
2023-05-12T05:12:19.865Z,24.59
2023-05-12T05:13:19.852Z,24.59
2023-05-12T05:14:19.820Z,24.59
2023-05-12T05:15:20.126Z,24.59
2023-05-12T05:16:19.859Z,24.59
2023-05-12T05:17:19.827Z,24.60
2023-05-12T05:18:21.690Z,24.61
2023-05-12T05:19:26.321Z,24.60
2023-05-12T05:20:20.879Z,24.59
2023-05-12T05:21:19.810Z,24.60
2023-05-12T05:22:19.798Z,24.61
2023-05-12T05:23:19.783Z,24.62
2023-05-12T05:24:19.827Z,24.61
2023-05-12T05:25:20.122Z,24.63
2023-05-12T05:26:19.763Z,24.62
2023-05-12T05:27:19.732Z,24.62
2023-05-12T05:28:19.881Z,24.64
2023-05-12T05:29:19.733Z,24.64
2023-05-12T05:30:19.788Z,24.65
2023-05-12T05:31:19.861Z,24.65
2023-05-12T05:32:19.882Z,24.65
2023-05-12T05:33:19.951Z,24.68
2023-05-12T05:34:20.066Z,24.70
2023-05-12T05:35:20.130Z,24.69
2023-05-12T05:36:20.082Z,24.71
2023-05-12T05:37:20.048Z,24.73
2023-05-12T05:38:20.129Z,24.77
2023-05-12T05:39:20.196Z,24.80
2023-05-12T05:40:20.226Z,24.85
2023-05-12T05:41:21.152Z,24.90
2023-05-12T05:42:20.390Z,24.93
2023-05-12T05:43:20.454Z,24.96
2023-05-12T05:44:20.460Z,24.99
2023-05-12T05:45:20.894Z,25.00
2023-05-12T05:46:20.606Z,25.02
2023-05-12T05:47:20.589Z,25.06
2023-05-12T05:48:21.197Z,25.12
2023-05-12T05:49:20.568Z,25.15
2023-05-12T05:50:20.603Z,25.16
2023-05-12T05:51:20.650Z,25.18
2023-05-12T05:52:20.732Z,25.20
2023-05-12T05:53:20.661Z,25.23
2023-05-12T05:54:20.729Z,25.26
2023-05-12T05:55:20.849Z,25.32
2023-05-12T05:56:21.255Z,25.39
2023-05-12T05:57:21.210Z,25.46
2023-05-12T05:58:21.268Z,25.52
2023-05-12T05:59:20.808Z,25.59
2023-05-12T06:00:21.185Z,25.65
2023-05-12T06:01:20.953Z,25.68
2023-05-12T06:02:21.085Z,25.73
2023-05-12T06:03:21.135Z,25.75
2023-05-12T06:04:21.196Z,25.78
2023-05-12T06:05:21.253Z,25.82
2023-05-12T06:06:21.117Z,25.89
2023-05-12T06:07:22.276Z,25.95
2023-05-12T06:08:21.182Z,26.01
2023-05-12T06:09:21.159Z,26.10
2023-05-12T06:10:21.382Z,26.19
2023-05-12T06:11:21.229Z,26.22
2023-05-12T06:12:21.178Z,26.20
2023-05-12T06:13:21.194Z,26.18
2023-05-12T06:14:21.235Z,26.14
2023-05-12T06:15:21.466Z,26.12
2023-05-12T06:16:21.268Z,26.08
2023-05-12T06:17:21.260Z,26.07
2023-05-12T06:18:21.250Z,26.05
2023-05-12T06:19:21.250Z,26.00
2023-05-12T06:20:21.250Z,25.99
2023-05-12T06:21:21.327Z,25.96
2023-05-12T06:22:21.341Z,25.94
2023-05-12T06:23:21.332Z,25.91
2023-05-12T06:24:21.343Z,25.89
2023-05-12T06:25:21.649Z,25.86
2023-05-12T06:26:21.373Z,25.85
2023-05-12T06:27:21.408Z,25.83
2023-05-12T06:28:21.493Z,25.84
2023-05-12T06:29:21.483Z,25.84
2023-05-12T06:30:21.566Z,25.83
2023-05-12T06:31:21.551Z,25.82
2023-05-12T06:32:21.672Z,25.80
2023-05-12T06:33:21.658Z,25.80
2023-05-12T06:34:21.692Z,25.79
2023-05-12T06:35:21.750Z,25.81
2023-05-12T06:36:21.733Z,25.82
2023-05-12T06:37:21.679Z,25.83
2023-05-12T06:38:21.775Z,25.85
2023-05-12T06:39:21.763Z,25.85
2023-05-12T06:40:21.769Z,25.86
2023-05-12T06:41:21.874Z,25.84
2023-05-12T06:42:21.877Z,25.82
2023-05-12T06:43:22.183Z,25.83
2023-05-12T06:44:21.916Z,25.79
2023-05-12T06:45:22.261Z,25.79
2023-05-12T06:46:22.018Z,25.79
2023-05-12T06:47:22.090Z,25.79
2023-05-12T06:48:22.055Z,25.81
2023-05-12T06:49:22.676Z,25.80
2023-05-12T06:50:22.129Z,25.80
2023-05-12T06:51:22.177Z,25.78
2023-05-12T06:52:22.662Z,25.78
2023-05-12T06:53:24.087Z,25.78
2023-05-12T06:54:22.216Z,25.79
2023-05-12T06:55:22.753Z,25.79
2023-05-12T06:56:22.202Z,25.78
2023-05-12T06:57:22.187Z,25.77
2023-05-12T06:58:22.269Z,25.76
2023-05-12T06:59:22.197Z,25.76
2023-05-12T07:00:22.227Z,25.76
2023-05-12T07:01:22.292Z,25.77
2023-05-12T07:02:22.165Z,25.77
2023-05-12T07:03:22.250Z,25.77
2023-05-12T07:04:22.119Z,25.76
2023-05-12T07:05:22.285Z,25.76
2023-05-12T07:06:22.141Z,25.76
2023-05-12T07:07:22.154Z,25.78
2023-05-12T07:08:22.136Z,25.80
2023-05-12T07:09:22.094Z,25.80
2023-05-12T07:10:22.088Z,25.80
2023-05-12T07:11:22.104Z,25.82
2023-05-12T07:12:22.191Z,25.82
2023-05-12T07:13:22.082Z,25.83
2023-05-12T07:14:22.109Z,25.84
2023-05-12T07:15:22.264Z,25.85
2023-05-12T07:16:22.103Z,25.84
2023-05-12T07:17:22.086Z,25.84
2023-05-12T07:18:22.089Z,25.84
2023-05-12T07:19:22.052Z,25.84
2023-05-12T07:20:22.034Z,25.85
2023-05-12T07:21:22.030Z,25.87
2023-05-12T07:22:22.050Z,25.88
2023-05-12T07:23:22.038Z,25.88
2023-05-12T07:24:21.999Z,25.88
2023-05-12T07:25:22.272Z,25.87
2023-05-12T07:26:21.999Z,25.85
2023-05-12T07:27:21.999Z,25.87
2023-05-12T07:28:21.975Z,25.90
2023-05-12T07:29:22.008Z,25.93
2023-05-12T07:30:21.987Z,25.95
2023-05-12T07:31:22.568Z,25.97
2023-05-12T07:32:22.037Z,25.99
2023-05-12T07:33:21.921Z,25.99
2023-05-12T07:34:21.966Z,25.98
2023-05-12T07:35:22.249Z,25.97
2023-05-12T07:36:22.177Z,25.96
2023-05-12T07:37:22.706Z,25.94
2023-05-12T07:38:22.021Z,25.92
2023-05-12T07:39:22.067Z,25.91
2023-05-12T07:40:22.110Z,25.88
2023-05-12T07:41:22.143Z,25.85
2023-05-12T07:42:22.196Z,25.83
2023-05-12T07:43:22.198Z,25.82
2023-05-12T07:44:22.330Z,25.80
2023-05-12T07:45:22.322Z,25.76
2023-05-12T07:46:22.403Z,25.73
2023-05-12T07:47:22.478Z,25.70
2023-05-12T07:48:22.501Z,25.65
2023-05-12T07:49:22.567Z,25.60
2023-05-12T07:50:22.654Z,25.57
2023-05-12T07:51:22.684Z,25.54
2023-05-12T07:52:22.766Z,25.51
2023-05-12T07:53:22.864Z,25.49
2023-05-12T07:54:22.981Z,25.47
2023-05-12T07:55:23.185Z,25.45
2023-05-12T07:56:23.036Z,25.44
2023-05-12T07:57:23.108Z,25.41
2023-05-12T07:58:23.082Z,25.40
2023-05-12T07:59:23.084Z,25.38
2023-05-12T08:00:23.503Z,25.37
2023-05-12T08:01:23.165Z,25.37
2023-05-12T08:02:23.339Z,25.36
2023-05-12T08:03:23.310Z,25.35
2023-05-12T08:04:23.311Z,25.34
2023-05-12T08:05:23.331Z,25.34
2023-05-12T08:06:24.935Z,25.32
2023-05-12T08:07:23.315Z,25.32
2023-05-12T08:08:23.321Z,25.31
2023-05-12T08:09:23.400Z,25.30
2023-05-12T08:10:23.343Z,25.29
2023-05-12T08:11:23.402Z,25.29
2023-05-12T08:12:23.414Z,25.29
2023-05-12T08:13:23.440Z,25.28
2023-05-12T08:14:23.436Z,25.28
2023-05-12T08:15:23.466Z,25.29
2023-05-12T08:16:23.665Z,25.30
2023-05-12T08:17:23.683Z,25.30
2023-05-12T08:18:23.645Z,25.31
2023-05-12T08:19:23.585Z,25.32
2023-05-12T08:20:23.623Z,25.31
2023-05-12T08:21:23.653Z,25.30
2023-05-12T08:22:23.675Z,25.30
2023-05-12T08:23:23.801Z,25.31
2023-05-12T08:24:23.766Z,25.31
2023-05-12T08:25:23.811Z,25.30
2023-05-12T08:26:24.193Z,25.29
2023-05-12T08:27:23.825Z,25.28
2023-05-12T08:28:23.866Z,25.25
2023-05-12T08:29:23.973Z,25.24
2023-05-12T08:30:23.971Z,25.18
2023-05-12T08:31:24.002Z,25.15
2023-05-12T08:32:24.170Z,25.10
2023-05-12T08:33:24.069Z,25.06
2023-05-12T08:34:24.164Z,25.00
2023-05-12T08:35:24.142Z,24.97
2023-05-12T08:36:24.186Z,24.96
2023-05-12T08:37:24.190Z,24.96
2023-05-12T08:38:24.205Z,24.95
2023-05-12T08:39:24.223Z,24.93
2023-05-12T08:40:24.242Z,24.91
2023-05-12T08:41:24.228Z,24.88
2023-05-12T08:42:24.230Z,24.75
2023-05-12T08:43:24.250Z,24.62
2023-05-12T08:44:24.306Z,24.45
2023-05-12T08:45:24.346Z,24.34
2023-05-12T08:46:24.363Z,24.34
2023-05-12T08:47:24.713Z,24.38
2023-05-12T08:48:24.443Z,24.44
2023-05-12T08:49:24.470Z,24.50
2023-05-12T08:50:24.500Z,24.57
2023-05-12T08:51:24.525Z,24.62
2023-05-12T08:52:24.570Z,24.65
2023-05-12T08:53:24.574Z,24.69
2023-05-12T08:54:24.548Z,24.71
2023-05-12T08:55:29.576Z,24.66
2023-05-12T08:57:24.580Z,24.64
2023-05-12T08:58:30.617Z,24.67
2023-05-12T08:59:25.566Z,24.68
2023-05-12T09:00:24.717Z,24.72
2023-05-12T09:01:24.585Z,24.78
2023-05-12T09:02:24.778Z,24.84
2023-05-12T09:03:24.558Z,24.87
2023-05-12T09:04:24.658Z,24.92
2023-05-12T09:05:24.517Z,24.95
2023-05-12T09:06:24.532Z,24.97
2023-05-12T09:07:24.555Z,24.95
2023-05-12T09:08:24.495Z,24.94
2023-05-12T09:09:24.533Z,24.92
2023-05-12T09:11:24.533Z,24.97
2023-05-12T09:12:24.561Z,24.98
2023-05-12T09:13:24.527Z,24.99
2023-05-12T09:14:24.533Z,25.01
2023-05-12T09:15:24.482Z,25.04
2023-05-12T09:16:24.556Z,25.06
2023-05-12T09:17:24.524Z,25.06
2023-05-12T09:18:24.500Z,25.07
2023-05-12T09:19:24.519Z,25.10
2023-05-12T09:21:25.486Z,25.14
2023-05-12T09:22:24.501Z,25.15
2023-05-12T09:23:24.477Z,25.16
2023-05-12T09:24:24.450Z,25.17
2023-05-12T09:25:24.496Z,25.18
2023-05-12T09:26:24.429Z,25.22
2023-05-12T09:27:24.451Z,25.27
2023-05-12T09:28:24.418Z,25.26
2023-05-12T09:29:31.197Z,25.20
2023-05-12T09:30:27.227Z,25.21
2023-05-12T09:31:24.448Z,25.22
2023-05-12T09:32:24.427Z,25.21
2023-05-12T09:33:24.399Z,25.13
2023-05-12T09:34:24.381Z,25.11
2023-05-12T09:35:24.386Z,25.08
2023-05-12T09:36:24.521Z,25.09
2023-05-12T09:37:24.391Z,25.10
2023-05-12T09:38:24.367Z,25.09
2023-05-12T09:39:24.378Z,25.04
2023-05-12T09:40:24.347Z,25.03
2023-05-12T09:41:24.332Z,25.01
2023-05-12T09:42:24.349Z,24.94
2023-05-12T09:43:24.786Z,24.81
2023-05-12T09:44:24.404Z,24.63
2023-05-12T09:45:24.312Z,24.49
2023-05-12T09:46:24.356Z,24.42
2023-05-12T09:47:24.381Z,24.40
2023-05-12T09:48:26.844Z,24.33
2023-05-12T09:49:24.276Z,24.17
2023-05-12T09:50:24.302Z,24.06
2023-05-12T09:51:24.282Z,23.85
2023-05-12T09:52:24.309Z,23.56
2023-05-12T09:53:24.775Z,23.34
2023-05-12T09:54:24.343Z,23.35
2023-05-12T09:55:24.239Z,23.40
2023-05-12T09:56:24.240Z,23.47
2023-05-12T09:57:24.222Z,23.55
2023-05-12T09:58:24.247Z,23.62
2023-05-12T09:59:24.199Z,23.65
2023-05-12T10:00:38.453Z,23.69
2023-05-12T10:01:25.451Z,23.67
2023-05-12T10:02:24.326Z,23.58
2023-05-12T10:03:24.289Z,23.59
2023-05-12T10:04:24.208Z,23.64
2023-05-12T10:05:24.168Z,23.68
2023-05-12T10:06:24.175Z,23.71
2023-05-12T10:07:24.145Z,23.77
2023-05-12T10:08:24.200Z,23.81
2023-05-12T10:09:24.158Z,23.87
2023-05-12T10:10:24.798Z,23.95
2023-05-12T10:11:24.148Z,24.00
2023-05-12T10:12:24.132Z,23.97
2023-05-12T10:13:24.210Z,23.94
2023-05-12T10:14:24.265Z,23.91
2023-05-12T10:15:24.290Z,23.85
2023-05-12T10:16:24.321Z,23.82
2023-05-12T10:17:24.395Z,23.84
2023-05-12T10:18:24.372Z,23.88
2023-05-12T10:19:24.363Z,23.96
2023-05-12T10:20:24.368Z,24.03
2023-05-12T10:21:24.411Z,24.12
2023-05-12T10:22:24.469Z,24.22
2023-05-12T10:23:24.525Z,24.29
2023-05-12T10:24:24.560Z,24.37
2023-05-12T10:25:24.783Z,24.40
2023-05-12T10:26:24.612Z,24.42
2023-05-12T10:27:24.563Z,24.43
2023-05-12T10:28:24.623Z,24.51
2023-05-12T10:29:24.629Z,24.58
2023-05-12T10:30:24.679Z,24.64
2023-05-12T10:31:24.736Z,24.66
2023-05-12T10:32:24.784Z,24.71
2023-05-12T10:33:24.855Z,24.77
2023-05-12T10:34:24.889Z,24.81
2023-05-12T10:35:24.974Z,24.82
2023-05-12T10:36:24.954Z,24.87
2023-05-12T10:37:25.065Z,24.93
2023-05-12T10:38:25.104Z,24.99
2023-05-12T10:39:25.102Z,25.03
2023-05-12T10:40:25.179Z,25.06
2023-05-12T10:41:25.152Z,25.10
2023-05-12T10:42:25.203Z,25.09
2023-05-12T10:43:25.227Z,25.09
2023-05-12T10:44:25.295Z,25.12
2023-05-12T10:45:25.770Z,25.13
2023-05-12T10:46:25.821Z,25.15
2023-05-12T10:47:25.322Z,25.18
2023-05-12T10:48:25.306Z,25.22
2023-05-12T10:49:25.315Z,25.25
2023-05-12T10:50:25.358Z,25.27
2023-05-12T10:51:25.346Z,25.30
2023-05-12T10:52:25.451Z,25.31
2023-05-12T10:53:28.612Z,25.32
2023-05-12T10:54:26.447Z,25.32
2023-05-12T10:55:25.865Z,25.33
2023-05-12T10:56:25.684Z,25.28
2023-05-12T10:57:25.531Z,25.29
2023-05-12T10:58:25.948Z,25.30
2023-05-12T10:59:25.936Z,25.30
2023-05-12T11:00:25.995Z,25.31
2023-05-12T11:01:26.343Z,25.32
2023-05-12T11:02:26.184Z,25.32
2023-05-12T11:03:26.176Z,25.32
2023-05-12T11:04:25.480Z,25.33
2023-05-12T11:05:25.747Z,25.34
2023-05-12T11:06:25.692Z,25.36
2023-05-12T11:07:26.338Z,25.36
2023-05-12T11:08:26.656Z,25.37
2023-05-12T11:09:25.465Z,25.38
2023-05-12T11:10:26.628Z,25.38
2023-05-12T11:11:25.390Z,25.39
2023-05-12T11:12:25.336Z,25.40
2023-05-12T11:13:25.340Z,25.43
2023-05-12T11:14:25.331Z,25.43
2023-05-12T11:15:25.375Z,25.44
2023-05-12T11:16:25.447Z,25.45
2023-05-12T11:17:25.842Z,25.46
2023-05-12T11:18:25.546Z,25.46
2023-05-12T11:19:25.517Z,25.46
2023-05-12T11:20:26.426Z,25.48
2023-05-12T11:21:25.558Z,25.49
2023-05-12T11:22:25.567Z,25.50
2023-05-12T11:23:25.686Z,25.55
2023-05-12T11:24:25.716Z,25.55
2023-05-12T11:25:25.782Z,25.57
2023-05-12T11:26:25.919Z,25.61
2023-05-12T11:27:25.907Z,25.67
2023-05-12T11:28:25.950Z,25.71
2023-05-12T11:29:25.961Z,25.70
2023-05-12T11:30:26.046Z,25.75
2023-05-12T11:31:26.205Z,25.77
2023-05-12T11:32:26.298Z,25.79
2023-05-12T11:33:26.156Z,25.80
2023-05-12T11:34:26.237Z,25.83
2023-05-12T11:35:26.281Z,25.83
2023-05-12T11:36:26.313Z,25.85
2023-05-12T11:37:26.346Z,25.88
2023-05-12T11:38:26.373Z,25.91
2023-05-12T11:39:26.403Z,25.94
2023-05-12T11:40:26.446Z,25.95
2023-05-12T11:41:26.469Z,25.95
2023-05-12T11:42:26.531Z,25.97
2023-05-12T11:43:26.581Z,25.96
2023-05-12T11:44:26.582Z,25.97
2023-05-12T11:45:26.650Z,25.97
2023-05-12T11:46:26.745Z,25.98
2023-05-12T11:47:26.690Z,25.98
2023-05-12T11:48:26.708Z,25.99
2023-05-12T11:49:26.762Z,26.00
2023-05-12T11:50:26.800Z,25.99
2023-05-12T11:51:26.865Z,26.00
2023-05-12T11:52:26.858Z,26.03
2023-05-12T11:53:27.749Z,26.05
2023-05-12T11:54:26.906Z,26.05
2023-05-12T11:55:26.886Z,26.06
2023-05-12T11:56:26.970Z,26.06
2023-05-12T11:57:26.994Z,26.09
2023-05-12T11:58:27.077Z,26.10
2023-05-12T11:59:27.014Z,26.12
2023-05-12T12:00:27.049Z,26.10
2023-05-12T12:01:27.094Z,26.11
2023-05-12T12:02:27.190Z,26.11
2023-05-12T12:03:27.192Z,26.10
2023-05-12T12:04:27.169Z,26.11
2023-05-12T12:05:27.136Z,26.11
2023-05-12T12:06:27.187Z,26.14
2023-05-12T12:07:27.208Z,26.15
2023-05-12T12:08:27.218Z,26.14
2023-05-12T12:09:27.228Z,26.14
2023-05-12T12:10:27.191Z,26.13
2023-05-12T12:11:27.246Z,26.14
2023-05-12T12:12:27.201Z,26.15
2023-05-12T12:13:27.218Z,26.16
2023-05-12T12:14:27.230Z,26.17
2023-05-12T12:15:27.228Z,26.18
2023-05-12T12:16:27.322Z,26.19
2023-05-12T12:17:27.298Z,26.20
2023-05-12T12:18:27.288Z,26.21
2023-05-12T12:19:27.235Z,26.23
2023-05-12T12:20:27.245Z,26.24
2023-05-12T12:21:27.248Z,26.27
2023-05-12T12:22:27.241Z,26.30
2023-05-12T12:23:27.274Z,26.34
2023-05-12T12:24:27.391Z,26.37
2023-05-12T12:25:27.445Z,26.40
2023-05-12T12:26:27.481Z,26.42
2023-05-12T12:27:27.559Z,26.42
2023-05-12T12:28:27.590Z,26.44
2023-05-12T12:29:27.667Z,26.47
2023-05-12T12:30:27.718Z,26.51
2023-05-12T12:31:27.780Z,26.49
2023-05-12T12:32:27.849Z,26.50
2023-05-12T12:33:27.877Z,26.52
2023-05-12T12:34:27.913Z,26.53
2023-05-12T12:35:27.968Z,26.56
2023-05-12T12:36:27.977Z,26.58
2023-05-12T12:37:28.047Z,26.59
2023-05-12T12:38:28.111Z,26.60
2023-05-12T12:39:28.108Z,26.61
2023-05-12T12:40:28.186Z,26.61
2023-05-12T12:41:28.185Z,26.62
2023-05-12T12:42:28.243Z,26.64
2023-05-12T12:43:28.304Z,26.65
2023-05-12T12:44:28.325Z,26.66
2023-05-12T12:45:28.354Z,26.65
2023-05-12T12:46:28.465Z,26.67
2023-05-12T12:47:28.453Z,26.70
2023-05-12T12:48:28.485Z,26.70
2023-05-12T12:49:28.524Z,26.71
2023-05-12T12:50:28.556Z,26.71
2023-05-12T12:51:42.155Z,26.71
2023-05-12T12:52:29.587Z,26.71
2023-05-12T12:53:28.585Z,26.72
2023-05-12T12:54:28.577Z,26.73
2023-05-12T12:55:28.562Z,26.72
2023-05-12T12:56:28.533Z,26.72